Bee, Nebraska
Current Conditions -  °F | °C
As of 12:54 PM on Tuesday 21 Oct 2014 (Local Time) from KLNK Reporting Station
Clear Clear  
Wind Chill: 74°   Ceiling: Unl
Heat Index: 74°   Visibility: 10mi
Dew Point: 44°   Wind: 10mph
Humidity: 34%   Direction: 160°SSE
Pressure: 30.09"   Gusts: NA
Location:  41.01°N, 97.06°W
Report Text: KLNK 211754Z 16009KT 10SM CLR 23/07 A3009 RMK AO2 SLP186 T02330067 10233 20017 58015
Loading
Personal Weather Stations






























Interactive Weather Map
Tropical Storm Tracking
New forecast layout! Learn more

10-Day Weather Forecast

Advertisements
Track Severe Weather on mobile